Time;durP1;ratioP1;P1;durP2;ratioP2;P2;SDS_P1;SDS_P2;PMS_P1;PMS_P2;Temp;Humidity;BMP_temperature;BMP_pressure;BME280_temperature;BME280_humidity;BME280_pressure;Samples;Min_cycle;Max_cycle;Signal;HPM_P1;HPM_P2
2022/07/20 00:01:44;;;;;;;6.23;3.83;;;;;;;26.07;34.03;100995.31;5138135;27;20035;-91
2022/07/20 00:04:13;;;;;;;7.33;4.60;;;;;;;26.07;34.50;100995.31;5137725;27;20756;-91
2022/07/20 00:06:38;;;;;;;5.82;4.18;;;;;;;25.95;34.62;100993.09;5102989;27;20123;-91
2022/07/20 00:11:48;;;;;;;7.60;4.13;;;;;;;25.85;35.69;100999.75;5138147;27;20120;-91
2022/07/20 00:14:13;;;;;;;7.87;4.20;;;;;;;25.85;35.52;100996.13;5102480;27;20118;-91
2022/07/20 00:16:39;;;;;;;6.63;4.13;;;;;;;25.80;35.79;100996.25;5102045;27;20368;-90
2022/07/20 00:19:04;;;;;;;10.05;4.03;;;;;;;25.74;35.73;100990.00;5118922;27;20031;-91
2022/07/20 00:21:30;;;;;;;7.23;4.03;;;;;;;25.71;34.69;100993.41;5118949;27;20469;-91
2022/07/20 00:23:56;;;;;;;11.68;4.32;;;;;;;25.66;34.84;100988.81;5118609;27;20038;-91
2022/07/20 00:26:21;;;;;;;7.43;3.90;;;;;;;25.63;34.79;100988.59;5153285;27;20027;-91
2022/07/20 00:28:50;;;;;;;11.57;4.65;;;;;;;25.58;34.70;100995.09;5119423;27;20027;-90
2022/07/20 00:31:16;;;;;;;11.68;4.00;;;;;;;25.51;34.30;100991.94;5102443;27;20031;-91
2022/07/20 00:33:41;;;;;;;10.57;4.13;;;;;;;25.52;34.04;100999.13;5102374;27;20127;-91
2022/07/20 00:36:07;;;;;;;6.63;4.00;;;;;;;25.38;35.70;101019.44;5084720;27;20118;-89
2022/07/20 00:38:32;;;;;;;8.63;4.28;;;;;;;25.36;33.78;101070.84;5117737;27;20031;-91
2022/07/20 00:40:58;;;;;;;5.33;3.73;;;;;;;25.56;32.64;101002.94;5118990;27;20037;-90
2022/07/20 00:43:23;;;;;;;6.93;4.17;;;;;;;25.60;32.95;101008.66;5136161;27;20042;-90
2022/07/20 00:45:48;;;;;;;6.93;3.80;;;;;;;25.51;33.64;101014.16;5137028;27;20027;-90
2022/07/20 00:48:14;;;;;;;8.10;3.80;;;;;;;25.47;33.85;101015.94;5118679;27;20033;-90
2022/07/20 00:50:39;;;;;;;8.90;4.20;;;;;;;25.43;33.71;101031.56;5118301;27;20025;-90
2022/07/20 00:53:06;;;;;;;14.85;4.65;;;;;;;25.48;33.49;101050.88;5118235;27;20033;-90
2022/07/20 00:55:32;;;;;;;12.33;4.47;;;;;;;25.42;33.33;101032.69;5137307;27;20046;-90
2022/07/20 00:57:57;;;;;;;11.57;4.03;;;;;;;25.31;33.90;101029.31;5101160;27;20027;-90
2022/07/20 01:00:23;;;;;;;6.43;4.43;;;;;;;25.24;33.77;101073.31;5118120;27;20031;-90
2022/07/20 01:02:48;;;;;;;10.75;4.63;;;;;;;25.17;33.90;101024.59;5118206;27;20026;-90
2022/07/20 01:05:14;;;;;;;16.23;4.93;;;;;;;25.12;34.23;101037.75;5118453;27;20019;-90
2022/07/20 01:07:45;;;;;;;6.93;4.23;;;;;;;25.01;34.00;101028.81;5100988;27;20056;-90
2022/07/20 01:10:11;;;;;;;8.32;4.70;;;;;;;24.99;35.11;101023.53;5136309;27;20023;-90
2022/07/20 01:12:38;;;;;;;8.77;4.32;;;;;;;24.92;35.15;101030.66;5101191;27;20026;-90
2022/07/20 01:15:06;;;;;;;16.27;5.05;;;;;;;24.86;34.26;101024.38;5101056;27;20027;-90
2022/07/20 01:17:32;;;;;;;15.53;4.80;;;;;;;24.85;34.71;101019.97;5101124;27;20612;-90
2022/07/20 01:19:57;;;;;;;6.80;4.53;;;;;;;24.78;35.74;101033.44;5100744;27;20062;-90
2022/07/20 01:22:23;;;;;;;14.00;4.87;;;;;;;24.75;35.10;101018.22;5118033;27;20083;-90
2022/07/20 01:24:48;;;;;;;11.00;4.43;;;;;;;24.68;35.43;101017.78;5100700;27;20061;-90
2022/07/20 01:27:14;;;;;;;17.30;4.65;;;;;;;24.61;35.57;101015.44;5117853;27;20031;-90
2022/07/20 01:29:41;;;;;;;8.20;4.40;;;;;;;24.54;35.86;101014.97;5117437;27;20035;-90
2022/07/20 01:32:07;;;;;;;6.53;4.70;;;;;;;24.57;35.90;101006.03;5136182;27;20546;-90
2022/07/20 01:34:32;;;;;;;8.27;4.87;;;;;;;24.55;36.22;101010.25;5117170;27;20049;-90
2022/07/20 01:36:58;;;;;;;13.02;4.68;;;;;;;24.51;36.47;101010.03;5117578;27;20027;-90
2022/07/20 01:39:23;;;;;;;11.73;4.20;;;;;;;24.44;36.72;101013.22;5101020;27;20371;-90
2022/07/20 01:41:53;;;;;;;8.60;4.63;;;;;;;24.38;36.50;101013.63;5100222;27;20053;-90
2022/07/20 01:44:22;;;;;;;15.38;4.80;;;;;;;24.31;37.30;101011.22;5117081;27;20027;-90
2022/07/20 01:46:49;;;;;;;13.02;4.80;;;;;;;24.28;37.03;101009.06;5117086;27;20026;-90
2022/07/20 01:49:20;;;;;;;7.97;5.03;;;;;;;24.22;37.58;101016.66;5135403;27;20102;-90
2022/07/20 01:51:45;;;;;;;10.48;4.55;;;;;;;24.15;37.27;101014.28;5117481;27;20038;-90
2022/07/20 01:54:11;;;;;;;7.38;4.80;;;;;;;24.09;37.84;101021.00;5116768;27;20398;-90
2022/07/20 01:56:40;;;;;;;7.00;4.97;;;;;;;24.05;37.18;101022.78;5117368;27;20457;-90
2022/07/20 01:59:05;;;;;;;16.40;5.20;;;;;;;24.04;37.09;101021.13;5117006;27;20023;-89
2022/07/20 02:01:31;;;;;;;12.70;5.13;;;;;;;24.03;36.66;101033.31;5116926;27;20076;-90
2022/07/20 02:03:56;;;;;;;10.20;5.03;;;;;;;24.06;36.66;101059.59;5117043;27;20375;-90
2022/07/20 02:06:24;;;;;;;9.95;4.90;;;;;;;24.16;35.68;101062.22;5100300;27;20486;-90
2022/07/20 02:08:50;;;;;;;11.53;5.00;;;;;;;24.42;35.18;101070.09;5135201;27;20027;-90
2022/07/20 02:11:16;;;;;;;8.10;4.82;;;;;;;24.41;35.78;101080.38;5099434;27;20122;-90
2022/07/20 02:13:42;;;;;;;13.00;5.00;;;;;;;24.27;36.95;101076.72;5116731;27;20031;-90
2022/07/20 02:16:16;;;;;;;9.85;5.78;;;;;;;24.11;37.87;101082.53;5116779;27;20165;-90
2022/07/20 02:18:48;;;;;;;14.27;6.60;;;;;;;24.00;39.49;101078.25;5135141;27;20038;-90
2022/07/20 02:21:16;;;;;;;12.93;6.97;;;;;;;23.88;40.11;101077.91;5117028;27;20031;-90
2022/07/20 02:23:42;;;;;;;11.02;7.18;;;;;;;23.76;40.30;101065.28;5116275;27;20494;-90
2022/07/20 02:26:11;;;;;;;15.37;7.90;;;;;;;23.67;41.20;101083.69;5116651;27;20031;-90
2022/07/20 02:28:36;;;;;;;15.15;8.18;;;;;;;23.60;42.01;101078.50;5135043;27;20031;-90
2022/07/20 02:31:08;;;;;;;10.63;7.90;;;;;;;23.54;42.35;101078.91;5135074;27;20061;-90
2022/07/20 02:33:34;;;;;;;21.67;9.85;;;;;;;23.43;43.33;101073.50;5116574;28;20035;-90
2022/07/20 02:36:00;;;;;;;17.43;10.00;;;;;;;23.36;44.88;101069.44;5116509;28;20019;-90
2022/07/20 02:38:26;;;;;;;17.55;11.88;;;;;;;23.29;46.84;101084.44;5116418;28;20068;-90
2022/07/20 02:40:52;;;;;;;24.58;11.90;;;;;;;23.25;47.28;101086.19;5116223;28;20068;-89
2022/07/20 02:43:18;;;;;;;28.50;13.95;;;;;;;23.21;48.66;101100.88;5099387;28;20039;-90
2022/07/20 02:45:43;;;;;;;28.70;14.27;;;;;;;23.14;49.47;101084.66;5134391;28;20352;-90
2022/07/20 02:48:09;;;;;;;28.77;15.30;;;;;;;23.06;50.70;101091.63;5116234;28;20027;-90
2022/07/20 02:50:38;;;;;;;25.35;15.52;;;;;;;23.01;52.03;101090.84;5116631;28;20065;-90
2022/07/20 02:53:06;;;;;;;29.75;16.23;;;;;;;22.90;52.82;101090.97;5116919;28;20100;-90
2022/07/20 02:55:32;;;;;;;27.30;16.30;;;;;;;22.86;53.23;101078.84;5115929;28;20066;-90
2022/07/20 02:58:01;;;;;;;31.58;17.63;;;;;;;22.81;54.01;101081.66;5116218;28;20119;-90
2022/07/20 03:00:27;;;;;;;32.63;18.38;;;;;;;22.72;55.06;101087.00;5116363;28;20023;-90
2022/07/20 03:02:53;;;;;;;30.17;17.97;;;;;;;22.67;55.49;101098.09;5116212;28;20118;-90
2022/07/20 03:05:22;;;;;;;31.25;18.17;;;;;;;22.62;56.08;101102.84;5115931;28;20035;-90
2022/07/20 03:07:51;;;;;;;30.55;17.92;;;;;;;22.55;56.13;101106.78;5119408;27;20236;-90
2022/07/20 03:10:16;;;;;;;30.10;18.60;;;;;;;22.52;56.89;101106.56;5121032;27;20034;-90
2022/07/20 03:12:42;;;;;;;28.57;19.20;;;;;;;22.45;57.75;101095.00;5120517;27;20027;-90
2022/07/20 03:15:08;;;;;;;34.42;20.05;;;;;;;22.40;58.46;101090.34;5120096;27;20076;-90
2022/07/20 03:17:48;;;;;;;35.97;20.50;;;;;;;22.34;58.46;101081.25;5120359;27;20039;-90
2022/07/20 03:20:18;;;;;;;40.25;21.10;;;;;;;22.29;59.25;101085.97;5138579;27;20027;-90
2022/07/20 03:22:44;;;;;;;29.40;21.02;;;;;;;22.24;59.80;101101.47;5138698;27;20023;-90
2022/07/20 03:25:10;;;;;;;34.87;22.07;;;;;;;22.16;60.23;101101.25;5102839;27;20049;-90
2022/07/20 03:27:36;;;;;;;34.90;21.02;;;;;;;22.12;60.63;101116.78;5138369;27;20029;-90
2022/07/20 03:30:05;;;;;;;38.47;21.48;;;;;;;22.07;60.93;101121.22;5138321;27;20058;-90
2022/07/20 03:32:31;;;;;;;33.45;22.05;;;;;;;21.99;61.90;101127.34;5102684;27;20035;-90
2022/07/20 03:34:57;;;;;;;34.40;21.50;;;;;;;21.98;62.17;101141.44;5119792;27;20084;-90
2022/07/20 03:37:25;;;;;;;37.13;22.60;;;;;;;21.95;62.78;101134.53;5119450;27;20031;-90
2022/07/20 03:39:51;;;;;;;39.25;24.15;;;;;;;21.93;63.16;101142.31;5119301;27;20027;-90
2022/07/20 03:42:17;;;;;;;36.75;23.23;;;;;;;21.92;63.75;101148.94;5119581;27;20083;-90
2022/07/20 03:44:42;;;;;;;37.47;23.93;;;;;;;21.88;63.60;101148.69;5119762;27;20051;-90
2022/07/20 03:47:08;;;;;;;36.58;24.15;;;;;;;21.85;64.17;101156.69;5102572;27;20031;-90
2022/07/20 03:49:33;;;;;;;35.27;24.47;;;;;;;21.81;64.70;101164.75;5119693;27;20503;-89
2022/07/20 03:51:59;;;;;;;37.30;25.57;;;;;;;21.78;65.11;101168.06;5119643;27;20390;-89
2022/07/20 03:54:24;;;;;;;38.50;24.58;;;;;;;21.77;65.38;101177.44;5118973;27;20119;-90
2022/07/20 03:56:50;;;;;;;39.80;25.57;;;;;;;21.72;65.43;101183.81;5102371;27;20398;-90
2022/07/20 03:59:15;;;;;;;45.27;26.07;;;;;;;21.71;65.68;101184.94;5119174;27;20080;-90
2022/07/20 04:01:41;;;;;;;41.20;25.37;;;;;;;21.72;65.48;101196.81;5118995;27;20058;-90
2022/07/20 04:04:08;;;;;;;39.15;25.15;;;;;;;21.72;65.34;101200.41;5101825;27;20389;-90
2022/07/20 04:06:33;;;;;;;38.90;24.48;;;;;;;21.73;65.18;101192.94;5119456;27;20367;-90
2022/07/20 04:08:59;;;;;;;39.70;24.63;;;;;;;21.75;65.21;101207.28;5118881;27;20077;-89
2022/07/20 04:11:24;;;;;;;36.30;24.90;;;;;;;21.77;65.07;101198.72;5119166;27;20031;-89
2022/07/20 04:13:50;;;;;;;41.20;24.73;;;;;;;21.80;64.54;101198.16;5137433;27;20027;-89
2022/07/20 04:16:16;;;;;;;38.72;24.50;;;;;;;21.81;64.47;101203.41;5119221;27;20474;-89
2022/07/20 04:18:42;;;;;;;38.37;24.57;;;;;;;21.85;64.39;101201.72;5117622;27;20033;-89
2022/07/20 04:21:07;;;;;;;37.90;24.10;;;;;;;21.88;64.19;101206.69;5101578;27;20031;-89
2022/07/20 04:23:35;;;;;;;41.40;24.10;;;;;;;21.94;63.93;101210.25;5101972;27;20059;-89
2022/07/20 04:26:00;;;;;;;37.83;23.07;;;;;;;21.98;63.76;101210.50;5118579;27;20371;-90
2022/07/20 04:28:26;;;;;;;39.10;23.35;;;;;;;22.02;63.35;101217.13;5118372;27;20507;-89
2022/07/20 04:30:51;;;;;;;35.27;22.63;;;;;;;22.06;63.46;101216.25;5118772;27;20027;-90
2022/07/20 04:33:18;;;;;;;35.83;22.87;;;;;;;22.10;63.27;101221.22;5136752;27;20042;-90
2022/07/20 04:35:44;;;;;;;40.35;22.13;;;;;;;22.17;62.98;101230.03;5118822;27;20117;-89
2022/07/20 04:38:13;;;;;;;38.22;23.23;;;;;;;22.17;62.56;101222.56;5118301;27;20438;-90
2022/07/20 04:40:38;;;;;;;32.92;22.63;;;;;;;22.25;62.74;101234.97;5118472;27;20023;-89
2022/07/20 04:43:04;;;;;;;32.53;22.17;;;;;;;22.32;61.79;101232.75;5118310;27;20034;-90
2022/07/20 04:45:29;;;;;;;36.13;20.87;;;;;;;22.34;61.82;101241.56;5118582;27;20478;-90
2022/07/20 04:47:57;;;;;;;36.33;21.70;;;;;;;22.37;61.89;101246.53;5118501;27;20031;-90
2022/07/20 04:50:22;;;;;;;31.27;20.30;;;;;;;22.42;61.39;101245.66;5101530;27;20034;-89
2022/07/20 04:52:48;;;;;;;33.20;20.55;;;;;;;22.39;61.21;101247.06;5118214;27;20023;-89
2022/07/20 04:55:13;;;;;;;30.50;20.40;;;;;;;22.33;61.24;101245.44;5100825;27;20082;-89
2022/07/20 04:57:39;;;;;;;36.60;21.60;;;;;;;22.34;61.21;101249.88;5118974;27;20019;-89
2022/07/20 05:00:06;;;;;;;30.98;19.40;;;;;;;22.34;61.37;101257.34;5100845;27;20471;-89
2022/07/20 05:02:34;;;;;;;34.03;19.80;;;;;;;22.34;60.89;101251.81;5101051;27;20031;-89
2022/07/20 05:05:00;;;;;;;30.50;19.25;;;;;;;22.33;61.02;101239.09;5118048;27;20030;-89
2022/07/20 05:07:25;;;;;;;35.30;20.20;;;;;;;22.30;61.23;101243.22;5135990;27;20034;-89
2022/07/20 05:09:51;;;;;;;29.23;19.50;;;;;;;22.28;60.97;101236.31;5117767;27;20265;-89
2022/07/20 05:12:16;;;;;;;29.37;20.03;;;;;;;22.29;60.85;101247.09;5118109;27;20057;-89
2022/07/20 05:14:42;;;;;;;29.43;19.90;;;;;;;22.30;60.96;101234.94;5100698;27;20035;-89
2022/07/20 05:17:07;;;;;;;29.02;19.70;;;;;;;22.31;60.83;101242.13;5117968;27;20116;-89
2022/07/20 05:19:33;;;;;;;31.67;19.23;;;;;;;22.34;60.57;101252.63;5117667;27;20034;-90
2022/07/20 05:21:59;;;;;;;29.87;18.17;;;;;;;22.33;60.84;101253.72;5117761;27;20028;-89
2022/07/20 05:24:24;;;;;;;31.73;18.75;;;;;;;22.39;60.72;101251.78;5117715;27;20034;-90
2022/07/20 05:26:50;;;;;;;30.97;20.07;;;;;;;22.42;60.42;101271.38;5118286;27;20122;-89
2022/07/20 05:29:15;;;;;;;27.57;19.37;;;;;;;22.39;60.66;101271.94;5134939;27;20066;-89
2022/07/20 05:31:41;;;;;;;28.63;17.17;;;;;;;22.44;60.13;101284.94;5117677;27;20280;-91
2022/07/20 05:34:06;;;;;;;28.87;17.87;;;;;;;22.52;59.63;101287.06;5101039;27;20023;-93
2022/07/20 05:36:32;;;;;;;28.85;17.67;;;;;;;22.56;59.92;101288.16;5117989;27;20020;-91
2022/07/20 05:38:57;;;;;;;28.93;18.47;;;;;;;22.63;59.94;101292.56;5117659;27;20459;-89
2022/07/20 05:41:26;;;;;;;27.27;17.77;;;;;;;22.69;59.30;101300.53;5117707;27;20387;-92
2022/07/20 05:43:54;;;;;;;29.85;18.55;;;;;;;22.81;59.48;101304.88;5135870;27;20027;-92
2022/07/20 05:46:21;;;;;;;25.67;17.17;;;;;;;22.88;58.39;101317.28;5118268;27;20146;-92
2022/07/20 05:48:47;;;;;;;27.13;15.87;;;;;;;22.92;57.99;101323.88;5135997;27;20061;-92
2022/07/20 05:51:13;;;;;;;33.42;15.80;;;;;;;23.01;57.59;101326.88;5117840;27;20115;-93
2022/07/20 05:53:38;;;;;;;27.10;15.67;;;;;;;23.11;57.81;101329.59;5116575;27;20038;-92
2022/07/20 05:56:07;;;;;;;23.80;15.43;;;;;;;23.26;57.21;101333.34;5097359;28;20479;-91
2022/07/20 05:58:33;;;;;;;34.05;15.57;;;;;;;23.38;56.28;101335.75;5115345;28;20418;-90
2022/07/20 06:00:58;;;;;;;29.77;15.37;;;;;;;23.50;55.88;101347.25;5114914;28;20455;-92
2022/07/20 06:03:28;;;;;;;30.20;15.50;;;;;;;23.56;56.04;101348.88;5096804;28;20078;-91
2022/07/20 06:05:54;;;;;;;26.47;15.63;;;;;;;23.67;55.80;101369.00;5115071;28;20028;-91
2022/07/20 06:08:19;;;;;;;20.13;14.40;;;;;;;23.70;55.46;101373.13;5096702;28;20094;-91
2022/07/20 06:10:50;;;;;;;24.50;13.47;;;;;;;23.76;55.13;101374.72;5096935;28;20119;-91
2022/07/20 06:13:19;;;;;;;25.35;14.50;;;;;;;23.75;55.56;101359.22;5114393;28;20055;-92
2022/07/20 06:15:47;;;;;;;21.45;14.05;;;;;;;23.76;55.30;101383.03;5079509;28;20054;-91
2022/07/20 06:18:12;;;;;;;25.27;14.23;;;;;;;23.71;55.44;101383.91;5096426;28;20479;-91
2022/07/20 06:20:38;;;;;;;23.33;13.68;;;;;;;23.75;55.49;101393.28;5096497;28;20118;-92
2022/07/20 06:23:04;;;;;;;20.47;14.10;;;;;;;23.82;55.22;101390.19;5096335;28;20471;-91
2022/07/20 06:25:29;;;;;;;28.02;14.10;;;;;;;23.82;55.00;101404.03;5096144;28;20464;-92
2022/07/20 06:28:03;;;;;;;22.47;14.23;;;;;;;23.85;54.94;101411.75;5114897;28;20028;-93
2022/07/20 06:30:31;;;;;;;25.52;14.60;;;;;;;23.87;54.73;101417.03;5080425;28;20039;-90
2022/07/20 06:32:56;;;;;;;26.30;14.43;;;;;;;23.91;54.51;101418.13;5096276;28;20032;-91
2022/07/20 06:35:22;;;;;;;23.53;13.37;;;;;;;23.92;54.11;101437.22;5096648;28;20035;-91
2022/07/20 06:37:48;;;;;;;24.95;13.60;;;;;;;23.95;54.77;101435.81;5096304;28;20031;-91
2022/07/20 06:40:13;;;;;;;26.63;13.90;;;;;;;24.01;54.47;101439.38;5078724;28;20118;-91
2022/07/20 06:42:44;;;;;;;25.47;13.40;;;;;;;23.94;55.05;101451.59;5096565;28;20031;-90
2022/07/20 06:45:10;;;;;;;21.33;13.43;;;;;;;23.97;54.79;101458.50;5079837;28;20344;-90
2022/07/20 06:47:48;;;;;;;25.73;13.98;;;;;;;23.95;54.76;101461.56;5096313;28;20028;-91
2022/07/20 06:50:14;;;;;;;27.73;13.63;;;;;;;23.93;54.82;101463.81;5080343;28;20035;-92
2022/07/20 06:52:42;;;;;;;24.90;13.52;;;;;;;23.82;54.96;101457.50;5114432;28;20030;-92
2022/07/20 06:55:08;;;;;;;26.93;13.53;;;;;;;23.69;54.94;101463.69;5106018;28;20040;-90
2022/07/20 06:57:33;;;;;;;24.90;14.10;;;;;;;23.67;55.11;101473.44;5113858;28;20035;-92
2022/07/20 06:59:58;;;;;;;25.53;13.90;;;;;;;23.75;55.18;101479.16;5113940;28;20028;-90
2022/07/20 07:02:26;;;;;;;22.17;12.90;;;;;;;23.76;55.06;101475.28;5095791;28;20063;-90
2022/07/20 07:04:54;;;;;;;21.83;13.70;;;;;;;23.83;54.81;101477.72;5112277;28;20490;-90
2022/07/20 07:07:20;;;;;;;20.50;13.57;;;;;;;23.88;54.86;101485.19;5112970;28;20023;-92
2022/07/20 07:09:48;;;;;;;30.02;13.00;;;;;;;24.06;54.57;101478.09;5079746;28;20127;-92
2022/07/20 07:12:16;;;;;;;27.93;13.23;;;;;;;24.20;54.35;101467.16;5095737;28;20024;-91
2022/07/20 07:14:47;;;;;;;63.22;14.82;;;;;;;24.38;54.64;101455.31;5112777;28;20479;-91
2022/07/20 07:17:15;;;;;;;27.00;12.98;;;;;;;24.46;53.27;101460.22;5114046;28;20070;-92
2022/07/20 07:19:43;;;;;;;20.92;13.55;;;;;;;24.46;53.16;101467.72;5133869;28;20066;-89
2022/07/20 07:22:19;;;;;;;24.65;13.35;;;;;;;24.47;53.03;101466.59;5116450;28;20039;-90
2022/07/20 07:24:44;;;;;;;22.83;12.97;;;;;;;24.46;52.90;101470.47;5116550;28;20379;-89
2022/07/20 07:27:16;;;;;;;19.45;12.82;;;;;;;24.51;53.51;101476.81;5115436;28;20039;-91
2022/07/20 07:29:41;;;;;;;18.93;12.13;;;;;;;24.58;53.48;101486.72;5116761;28;20474;-90
2022/07/20 07:32:11;;;;;;;21.15;12.80;;;;;;;24.68;52.99;101493.03;5115526;28;20031;-90
2022/07/20 07:34:39;;;;;;;21.08;12.02;;;;;;;24.86;52.73;101501.66;5100060;28;20031;-90
2022/07/20 07:37:05;;;;;;;20.80;11.60;;;;;;;25.05;52.78;101510.03;5115953;28;20047;-90
2022/07/20 07:39:36;;;;;;;22.33;12.48;;;;;;;25.02;51.83;101513.41;5133947;28;20363;-90
2022/07/20 07:42:02;;;;;;;18.13;11.35;;;;;;;25.06;51.81;101520.03;5115536;28;20023;-90
2022/07/20 07:44:28;;;;;;;17.00;11.00;;;;;;;25.09;51.44;101524.16;5116044;28;20076;-90
2022/07/20 07:46:53;;;;;;;21.30;11.38;;;;;;;25.02;51.33;101527.28;5115819;28;20023;-90
2022/07/20 07:49:18;;;;;;;21.33;11.77;;;;;;;24.92;52.01;101541.28;5115295;28;20043;-89
2022/07/20 07:51:44;;;;;;;18.43;10.80;;;;;;;24.90;50.87;101546.31;5115361;27;20023;-87
2022/07/20 07:54:10;;;;;;;20.15;11.88;;;;;;;24.92;52.34;101531.03;5136854;27;20047;-86
2022/07/20 07:56:35;;;;;;;18.23;11.30;;;;;;;24.90;51.29;101541.59;5101974;27;20039;-86
2022/07/20 07:59:01;;;;;;;20.87;10.27;;;;;;;24.93;51.80;101531.84;5102474;27;20347;-86
2022/07/20 08:01:27;;;;;;;21.38;11.02;;;;;;;24.96;51.64;101523.75;5119366;27;20084;-87
2022/07/20 08:03:52;;;;;;;14.87;10.10;;;;;;;25.06;52.05;101519.22;5119084;27;20463;-87
2022/07/20 08:06:18;;;;;;;17.30;10.35;;;;;;;25.12;49.13;101518.00;5118843;27;20044;-87
2022/07/20 08:08:43;;;;;;;15.43;9.83;;;;;;;25.12;49.08;101512.47;5102068;27;20031;-88
2022/07/20 08:11:09;;;;;;;16.07;9.60;;;;;;;25.21;49.25;101511.47;5118811;27;20038;-87
2022/07/20 08:13:35;;;;;;;16.35;10.02;;;;;;;25.39;48.83;101504.34;5137014;27;20156;-87
2022/07/20 08:16:01;;;;;;;17.15;10.07;;;;;;;25.58;48.72;101499.91;5118860;27;20034;-87
2022/07/20 08:18:29;;;;;;;19.33;10.17;;;;;;;25.79;48.57;101489.28;5102210;27;20125;-87
2022/07/20 08:20:54;;;;;;;17.33;10.18;;;;;;;25.88;47.77;101493.84;5119059;27;20074;-87
2022/07/20 08:23:19;;;;;;;16.83;9.97;;;;;;;25.89;48.51;101481.56;5119532;27;20027;-87
2022/07/20 08:25:45;;;;;;;17.30;10.77;;;;;;;25.92;47.92;101494.03;5136693;27;20028;-87
2022/07/20 08:28:20;;;;;;;20.37;11.30;;;;;;;25.87;47.79;101499.72;5101605;27;20023;-87
2022/07/20 08:30:48;;;;;;;17.77;10.23;;;;;;;25.81;48.32;101507.31;5118774;27;20489;-87
2022/07/20 08:33:13;;;;;;;19.40;10.60;;;;;;;25.93;48.55;101517.94;5101319;27;20159;-87
2022/07/20 08:35:39;;;;;;;14.87;10.60;;;;;;;26.15;48.24;101522.06;5118381;27;20035;-87
2022/07/20 08:38:05;;;;;;;18.35;10.45;;;;;;;26.37;48.05;101529.75;5118327;27;20022;-88
2022/07/20 08:40:31;;;;;;;18.17;10.30;;;;;;;26.57;47.15;101531.28;5136797;27;20046;-87
2022/07/20 08:42:57;;;;;;;19.37;10.03;;;;;;;26.60;47.36;101547.38;5136740;27;20023;-88
2022/07/20 08:45:23;;;;;;;14.23;10.55;;;;;;;26.81;46.47;101538.66;5100955;27;20489;-87
2022/07/20 08:47:50;;;;;;;23.83;11.02;;;;;;;26.95;46.62;101520.81;5118716;27;20043;-87
2022/07/20 08:50:22;;;;;;;20.03;11.17;;;;;;;27.06;45.94;101520.59;5118257;27;20034;-88
2022/07/20 08:52:47;;;;;;;20.35;10.95;;;;;;;27.36;45.90;101530.28;5118429;27;20435;-88
2022/07/20 08:55:13;;;;;;;21.50;11.32;;;;;;;27.37;44.43;101523.56;5100727;27;20089;-87
2022/07/20 08:57:38;;;;;;;19.87;10.97;;;;;;;27.15;45.38;101510.38;5118785;27;20031;-88
2022/07/20 09:00:05;;;;;;;21.50;10.53;;;;;;;27.04;45.43;101506.97;5117990;27;20166;-87
2022/07/20 09:02:47;;;;;;;20.55;10.85;;;;;;;26.89;45.58;101473.91;5118456;27;20054;-87
2022/07/20 09:05:12;;;;;;;16.00;10.50;;;;;;;26.90;46.11;101469.97;5116840;27;20038;-87
2022/07/20 09:07:41;;;;;;;20.20;10.77;;;;;;;26.98;45.69;101490.72;5117745;27;20035;-87
2022/07/20 09:10:10;;;;;;;16.92;10.93;;;;;;;27.09;46.34;101512.47;5117384;27;20142;-87
2022/07/20 09:12:49;;;;;;;13.88;10.20;;;;;;;27.27;45.93;101521.81;5136199;27;20027;-87
2022/07/20 09:15:27;;;;;;;18.37;10.50;;;;;;;27.45;44.95;101519.22;5117710;27;20023;-87
2022/07/20 09:18:07;;;;;;;16.92;11.00;;;;;;;27.72;44.56;101573.22;5136587;27;20081;-88
2022/07/20 09:20:34;;;;;;;18.05;11.23;;;;;;;27.46;44.38;101591.34;5117862;27;20023;-87
2022/07/20 09:23:07;;;;;;;15.23;10.93;;;;;;;27.12;45.28;101614.03;5117685;27;20042;-87
2022/07/20 09:25:33;;;;;;;22.52;11.48;;;;;;;26.95;45.93;101614.66;5117732;27;20035;-87
2022/07/20 09:27:59;;;;;;;24.80;11.27;;;;;;;26.84;46.16;101613.19;5083850;27;20488;-87
2022/07/20 09:30:28;;;;;;;19.63;11.80;;;;;;;26.65;46.29;101605.72;5135474;27;20045;-89
2022/07/20 09:33:03;;;;;;;18.35;11.00;;;;;;;26.60;46.92;101609.44;5100193;27;20031;-88
2022/07/20 09:35:32;;;;;;;22.48;11.45;;;;;;;26.73;46.40;101580.00;5116685;27;20042;-88
2022/07/20 09:38:00;;;;;;;18.40;10.90;;;;;;;27.05;46.54;101588.59;5135743;27;20027;-89
2022/07/20 09:40:25;;;;;;;21.75;11.27;;;;;;;27.42;45.54;101579.16;5117188;27;20027;-89
2022/07/20 09:42:51;;;;;;;16.25;10.88;;;;;;;27.89;44.36;101581.72;5117019;27;20355;-89
2022/07/20 09:45:24;;;;;;;17.47;10.67;;;;;;;28.06;43.30;101577.47;5135172;27;20019;-89
2022/07/20 09:48:07;;;;;;;23.10;10.65;;;;;;;28.32;43.50;101574.84;5117421;27;20458;-89
2022/07/20 09:50:43;;;;;;;18.17;10.52;;;;;;;28.60;42.66;101586.69;5117836;27;20027;-88
2022/07/20 09:53:10;;;;;;;20.30;10.80;;;;;;;28.41;42.91;101566.53;5135652;27;20371;-89
2022/07/20 09:55:37;;;;;;;19.83;9.97;;;;;;;28.63;41.29;101569.28;5116455;27;20138;-89
2022/07/20 09:58:04;;;;;;;14.80;9.60;;;;;;;28.98;41.36;101560.22;5135197;27;20027;-88
2022/07/20 10:00:31;;;;;;;13.93;9.70;;;;;;;29.08;40.58;101571.09;5099688;27;20043;-89
2022/07/20 10:02:59;;;;;;;17.80;9.65;;;;;;;28.94;39.73;101565.63;5116370;27;20027;-88
2022/07/20 10:05:30;;;;;;;14.98;9.05;;;;;;;28.87;41.48;101570.88;5135034;27;20062;-89
2022/07/20 10:08:03;;;;;;;14.83;9.70;;;;;;;28.75;40.96;101588.22;5135947;27;20100;-88
2022/07/20 10:10:29;;;;;;;13.98;10.02;;;;;;;28.62;41.34;101594.75;5135175;27;20042;-89
2022/07/20 10:12:56;;;;;;;15.73;10.38;;;;;;;28.67;41.15;101603.81;5116413;27;20035;-89
2022/07/20 10:15:32;;;;;;;17.30;9.90;;;;;;;28.66;41.39;101596.56;5135846;27;20098;-89
2022/07/20 10:17:58;;;;;;;15.88;9.90;;;;;;;28.95;41.52;101592.44;5119085;27;20421;-88
2022/07/20 10:20:31;;;;;;;17.40;9.77;;;;;;;29.19;40.94;101578.03;5152256;27;20031;-89
2022/07/20 10:23:15;;;;;;;16.35;10.52;;;;;;;29.43;41.15;101585.19;5118263;27;20039;-89
2022/07/20 10:25:46;;;;;;;15.60;9.38;;;;;;;29.14;40.30;101568.97;5118111;27;20027;-89
2022/07/20 10:28:34;;;;;;;17.17;10.57;;;;;;;28.80;40.92;101570.50;5117572;27;20042;-89
2022/07/20 10:31:06;;;;;;;15.48;9.63;;;;;;;28.55;41.31;101567.25;5116580;27;20027;-89
2022/07/20 10:33:37;;;;;;;16.10;9.85;;;;;;;28.69;41.84;101561.59;5117252;28;20382;-89
2022/07/20 10:39:43;;;;;;;12.00;8.57;;;;;;;29.12;40.25;101565.69;5120527;28;20061;-88
2022/07/20 10:42:34;;;;;;;13.53;8.63;;;;;;;29.09;40.79;101567.16;5135502;28;20467;-89
2022/07/20 10:45:20;;;;;;;14.20;8.30;;;;;;;29.48;39.55;101576.63;5117512;28;20023;-89
2022/07/20 10:47:55;;;;;;;12.30;8.20;;;;;;;30.05;38.53;101558.06;5120670;28;20031;-89
2022/07/20 10:50:29;;;;;;;15.80;8.70;;;;;;;30.54;37.33;101563.41;5135654;28;20031;-89
2022/07/20 10:53:18;;;;;;;13.27;8.13;;;;;;;30.75;37.47;101569.94;5117494;28;20045;-89
2022/07/20 10:55:58;;;;;;;11.70;8.17;;;;;;;30.50;37.06;101568.84;5105944;28;20047;-89
2022/07/20 10:58:24;;;;;;;13.93;7.93;;;;;;;30.47;36.66;101580.72;5135763;28;20023;-88
2022/07/20 11:00:57;;;;;;;11.13;8.20;;;;;;;30.61;36.92;101574.91;5135023;28;20023;-89
2022/07/20 11:03:27;;;;;;;12.02;8.35;;;;;;;30.84;37.05;101583.06;5151113;27;20494;-89
2022/07/20 11:06:08;;;;;;;14.35;8.18;;;;;;;31.02;37.07;101572.59;5135416;28;20058;-88
2022/07/20 11:08:35;;;;;;;11.95;8.88;;;;;;;30.76;36.50;101584.75;5116627;28;20471;-88
2022/07/20 11:11:01;;;;;;;16.50;8.50;;;;;;;31.13;36.18;101577.50;5115989;28;20386;-88
2022/07/20 11:13:27;;;;;;;10.07;7.97;;;;;;;31.66;35.00;101575.19;5117450;28;20027;-89
2022/07/20 11:15:55;;;;;;;11.45;8.30;;;;;;;31.66;35.08;101566.75;5099903;28;20103;-88
2022/07/20 11:18:23;;;;;;;15.40;8.47;;;;;;;31.95;35.42;101559.41;5116146;28;20110;-89
2022/07/20 11:20:54;;;;;;;16.60;8.48;;;;;;;32.14;35.59;101561.75;5134836;28;20031;-89